Decoded Metar for PATK (TALKEETNA in AK, USA) (IATA:TKA) | Meteo·Mobile Aviation Weather
aviador You're here:

PATK Decoded Metar

TALKEETNA in AK, USA
Report Time2018-10-22 09:53:00
UTC Time2018-10-22 10:30:47
Flight Rules unknown UNKNOWN
WindCalm
VisibilityN/A
Phenomena:N/A
Clouds:Broken 070 Hf
Overcast 090 Hf
Expected CloudBase > 800 ft AGL from Temp-Dew spread
Ceiling7,000 ft
Temp03°C (ISA -11)
Dew Point01°C (87% RH)
AAT1.2°C
QNH1002 hPa
Density Alt-545 ft
Elevation358 ft
Report Wrong Elevation
Raw Report
PATK 220953Z AUTO 00000KT BKN070 OVC090 03/01 A2959 RMK AO2 SLP023
T00280006 TSNO $=

Extra information for PATK:More info

Metar Taf Metar & Taf Last 4 Metars F.Rules Stats Wind Profile Meteogram Temp Stats Airport Information Weather charts Add Link Nearby VenuesMetar ALERT Operation Metar Decoded Social comments

AIRNAV info for PATK